Flight Track Log - Related Links

Times and Time Zones

All times are in EDT time to prevent confusion due to time zone crossing. See the N225SB flight status page for this flight to view local times or setup timezone preferences in your user account.

Time Position Orientation Groundspeed Altitude Reporting Facility
EDT Latitude Longitude Course Direction KTS MPH feet Rate Location/Type
Sun 02:33:14 PM 40.8689 -73.9486 233° Southwest 226 260 5,200  Level New York Center
Sun 02:34:14 PM 40.8772 -74.0258 278° West 244 281 8,400 2,950 Climbing New York Center
Sun 02:35:14 PM 40.8728 -74.1053 266° West 256 295 11,100 2,200 Climbing New York Center
Sun 02:36:14 PM 40.8431 -74.1997 247° West 298 343 12,800 1,750 Climbing New York Center
Sun 02:37:14 PM 40.8042 -74.3211 247° West 323 372 14,600 1,600 Climbing New York Center
Sun 02:38:00 PM 40.4114 -74.5253 233° Southwest  Level Estimated
Sun 02:38:14 PM 40.7700 -74.4100 243° Southwest 352 405 16,000  Level New York Center
Sun 02:39:14 PM 40.7286 -74.5419 248° West 352 405 17,000 800 Climbing New York Center
Sun 02:40:14 PM 40.6894 -74.6572 246° West 377 434 17,600 750 Climbing New York Center
Sun 02:41:14 PM 40.6411 -74.7942 245° Southwest 377 434 18,500 900 Climbing New York Center
Sun 02:42:14 PM 40.6017 -74.9094 246° West 382 440 19,400 1,000 Climbing New York Center
Sun 02:43:14 PM 40.5575 -75.0322 245° Southwest 382 440 20,500 1,200 Climbing New York Center
Sun 02:44:14 PM 40.4908 -75.1456 232° Southwest 382 440 21,800 1,350 Climbing New York Center
Sun 02:45:14 PM 40.4225 -75.2503 229° Southwest 388 447 23,200 1,350 Climbing New York Center
Sun 02:46:14 PM 40.3558 -75.3575 231° Southwest 394 453 24,500 1,733 Climbing New York Center
Sun 02:48:14 PM 40.2203 -75.5661 230° Southwest 368 423 28,400 1,633 Climbing New York Center
Sun 02:49:14 PM 40.1700 -75.6714 238° Southwest 354 407 29,400 1,050 Climbing New York Center
Sun 02:50:14 PM 40.1136 -75.7786 236° Southwest 348 400 30,500 900 Climbing New York Center
Sun 02:51:14 PM 40.0608 -75.8861 237° Southwest 348 400 31,200 650 Climbing New York Center
Sun 02:52:14 PM 40.0042 -75.9956 236° Southwest 361 415 31,800 650 Climbing New York Center
Sun 02:53:14 PM 39.9489 -76.1081 237° Southwest 366 421 32,500 600 Climbing New York Center
Sun 02:54:14 PM 39.8950 -76.1958 231° Southwest 373 429 33,000 650 Climbing New York Center
Sun 02:55:14 PM 39.8097 -76.3217 229° Southwest 391 450 33,800 700 Climbing New York Center
Sun 02:56:14 PM 39.7381 -76.4294 229° Southwest 396 456 34,400 596 Climbing New York Center
Sun 02:57:35 PM 39.6492 -76.5644 229° Southwest 399 459 35,200 592 Climbing Washington Center
Sun 02:58:36 PM 39.5797 -76.6711 230° Southwest 394 453 35,800 605 Climbing Washington Center
Sun 02:59:34 PM 39.5058 -76.7778 228° Southwest 394 453 36,400 605 Climbing Washington Center
Sun 03:00:35 PM 39.4381 -76.8842 231° Southwest 394 453 37,000 639 Climbing Washington Center
Sun 03:01:36 PM 39.3658 -76.9928 229° Southwest 394 453 37,700 605 Climbing Washington Center
Sun 03:02:34 PM 39.2936 -77.0986 229° Southwest 399 459 38,200 559 Climbing Washington Center
Sun 03:03:34 PM 39.2214 -77.2044 229° Southwest 399 459 38,800 645 Climbing Washington Center
Sun 03:04:35 PM 39.1514 -77.3100 229° Southwest 399 459 39,500 585 Climbing Washington Center
Sun 03:05:37 PM 39.0808 -77.4125 228° Southwest 399 459 40,000 303 Climbing Washington Center
Sun 03:06:34 PM 39.0106 -77.5178 229° Southwest 399 459 40,100  Climbing Washington Center
Sun 03:07:35 PM 38.9253 -77.6408 228° Southwest 410 472 40,000 -50 Descending Washington Center
Sun 03:08:35 PM 38.8567 -77.7375 228° Southwest 410 472 40,000  Level Washington Center
Sun 03:09:36 PM 38.7711 -77.8656 229° Southwest 418 481 40,000  Level Washington Center
Sun 03:10:36 PM 38.6958 -77.9750 229° Southwest 424 488 40,000  Level Washington Center
Sun 03:11:34 PM 38.6186 -78.0867 229° Southwest 424 488 40,000  Level Washington Center
Sun 03:12:34 PM 38.5411 -78.1983 228° Southwest 424 488 40,000  Level Washington Center
Sun 03:13:35 PM 38.4614 -78.3122 228° Southwest 430 495 40,000  Level Washington Center
Sun 03:14:34 PM 38.3839 -78.4206 228° Southwest 425 489 40,000  Level Washington Center
Sun 03:15:34 PM 38.3061 -78.5367 230° Southwest 425 489 40,000  Level Washington Center
Sun 03:16:35 PM 38.2389 -78.6397 230° Southwest 419 482 40,000  Level Washington Center
Sun 03:17:36 PM 38.1589 -78.7500 227° Southwest 419 482 40,000  Level Washington Center
Sun 03:18:34 PM 38.0786 -78.8628 228° Southwest 426 490 40,000  Level Washington Center
Sun 03:19:35 PM 37.9961 -78.9778 228° Southwest 431 496 40,000  Level Washington Center
Sun 03:20:35 PM 37.9092 -79.1028 229° Southwest 437 503 40,000  Level Washington Center
Sun 03:21:36 PM 37.8267 -79.2147 227° Southwest 437 503 40,000  Level Washington Center
Sun 03:22:34 PM 37.7461 -79.3264 228° Southwest 432 497 40,000  Level Washington Center
Sun 03:23:35 PM 37.6697 -79.4303 227° Southwest 440 506 40,000  Level Washington Center
Sun 03:24:35 PM 37.5781 -79.5539 227° Southwest 440 506 40,000  Level Washington Center
Sun 03:25:36 PM 37.5058 -79.6575 229° Southwest 445 512 40,000  Level Washington Center
Sun 03:27:57 PM 37.2953 -79.9406 227° Southwest 448 516 40,000  Level Atlanta Center
Sun 03:28:57 PM 37.2192 -80.0408 226° Southwest 448 516 40,000  Level Atlanta Center
Sun 03:29:57 PM 37.1353 -80.1544 227° Southwest 442 509 40,000  Level Atlanta Center
Sun 03:30:57 PM 37.0514 -80.2678 227° Southwest 442 509 40,000  Level Atlanta Center
Sun 03:31:57 PM 36.9592 -80.3892 226° Southwest 442 509 40,000  Level Atlanta Center
Sun 03:32:57 PM 36.8750 -80.5047 228° Southwest 442 509 40,000  Level Atlanta Center
Sun 03:33:57 PM 36.7883 -80.6172 226° Southwest 442 509 40,000  Level Atlanta Center
Sun 03:34:57 PM 36.7144 -80.7292 231° Southwest 428 493 40,000  Level Atlanta Center
Sun 03:35:57 PM 36.6442 -80.8383 231° Southwest 438 504 40,000  Level Atlanta Center
Sun 03:36:57 PM 36.5681 -80.9575 232° Southwest 438 504 40,000  Level Atlanta Center
Sun 03:37:57 PM 36.4856 -81.0797 230° Southwest 449 517 40,000  Level Atlanta Center
Sun 03:38:57 PM 36.4092 -81.2011 232° Southwest 454 522 40,000  Level Atlanta Center
Sun 03:39:57 PM 36.3286 -81.3200 230° Southwest 454 522 40,000  Level Atlanta Center
Sun 03:40:57 PM 36.2497 -81.4383 230° Southwest 454 522 40,000  Level Atlanta Center
Sun 03:41:57 PM 36.1689 -81.5594 230° Southwest 454 522 40,000  Level Atlanta Center
Sun 03:42:57 PM 36.0897 -81.6800 231° Southwest 454 522 40,000  Level Atlanta Center
Sun 03:43:57 PM 36.0108 -81.8003 231° Southwest 454 522 40,000  Level Atlanta Center
Sun 03:44:57 PM 35.9272 -81.9181 229° Southwest 454 522 40,000 -300 Level Atlanta Center
Sun 03:45:57 PM 35.8458 -82.0381 230° Southwest 454 522 39,400 -1,050 Descending Atlanta Center
Sun 03:46:57 PM 35.7561 -82.1706 230° Southwest 454 522 37,900 -1,400 Descending Atlanta Center
Sun 03:47:57 PM 35.6767 -82.2900 231° Southwest 460 529 36,600 -1,450 Descending Atlanta Center
Sun 03:48:57 PM 35.5967 -82.4042 229° Southwest 455 524 35,000 -1,100 Descending Atlanta Center
Sun 03:49:57 PM 35.5169 -82.5206 230° Southwest 450 518 34,400 -1,150 Descending Atlanta Center
Sun 03:50:57 PM 35.4369 -82.6317 229° Southwest 440 506 32,700 -1,850 Descending Atlanta Center
Sun 03:51:57 PM 35.3567 -82.7475 230° Southwest 440 506 30,700 -2,000 Descending Atlanta Center
Sun 03:52:57 PM 35.2744 -82.8633 229° Southwest 440 506 28,700 -1,950 Descending Atlanta Center
Sun 03:53:57 PM 35.1942 -82.9789 230° Southwest 440 506 26,800 -1,850 Descending Atlanta Center
Sun 03:54:57 PM 35.1261 -83.0739 229° Southwest 440 506 25,000 -1,800 Descending Atlanta Center
Sun 03:55:57 PM 35.0497 -83.1836 230° Southwest 434 499 23,200 -1,750 Descending Atlanta Center
Sun 03:56:57 PM 34.9772 -83.2858 229° Southwest 423 487 21,500 -1,650 Descending Atlanta Center
Sun 03:57:57 PM 34.9006 -83.3778 225° Southwest 407 468 19,900 -1,650 Descending Atlanta Center
Sun 03:58:57 PM 34.8219 -83.4694 224° Southwest 394 453 18,200 -1,600 Descending Atlanta Center
Sun 03:59:57 PM 34.7514 -83.5558 225° Southwest 377 434 16,700 -1,700 Descending Atlanta Center
Sun 04:00:57 PM 34.6744 -83.6422 223° Southwest 358 412 14,800 -1,750 Descending Atlanta Center
Sun 04:01:57 PM 34.6036 -83.7283 225° Southwest 350 403 13,200 -1,550 Descending Atlanta Center
Sun 04:02:57 PM 34.5392 -83.8069 225° Southwest 350 403 11,700 -1,350 Descending Atlanta Center
Sun 04:03:57 PM 34.4744 -83.8825 224° Southwest 330 380 10,500 -1,000 Descending Atlanta Center
Sun 04:04:57 PM 34.4225 -83.9456 225° Southwest 312 359 9,700 -850 Descending Atlanta Center
Sun 04:05:57 PM 34.3683 -84.0086 224° Southwest 288 331 8,800 -850 Descending Atlanta Center
Sun 04:06:57 PM 34.3119 -84.0714 223° Southwest 278 320 8,000 -450 Descending Atlanta Center
Sun 04:07:57 PM 34.2492 -84.1117 208° Southwest 273 314 7,900 -550 Descending Atlanta Center
Sun 04:08:57 PM 34.2011 -84.1844 231° Southwest 261 300 6,900 -950 Descending Atlanta Center
Sun 04:09:57 PM 34.1636 -84.2522 236° Southwest 256 295 6,000 -450 Descending Atlanta Center
Sun 04:10:57 PM 34.1278 -84.3172 236° Southwest 246 283 6,000  Level Atlanta Center
Sun 04:11:32 PM 34.1000 -84.3667 236° Southwest 214 246 6,000  Level Atlanta TRACON
Sun 04:12:32 PM 34.0667 -84.4167 231° Southwest 204 235 6,000 -397 Level Atlanta TRACON
Sun 04:13:33 PM 34.0333 -84.4667 231° Southwest 211 243 5,200 -992 Descending Atlanta TRACON
Sun 04:14:33 PM 34.0000 -84.5333 239° Southwest 226 260 4,000 -950 Descending Atlanta TRACON
Sun 04:15:33 PM 33.9500 -84.5667 209° Southwest 208 239 3,300 -500 Descending Atlanta TRACON
Sun 04:16:33 PM 33.9000 -84.6000 209° Southwest 193 222 3,000 -400 Descending Atlanta TRACON
Sun 04:17:33 PM 33.8500 -84.6167 195° South 182 209 2,500 -300 Descending Atlanta TRACON
Sun 04:18:33 PM 33.8167 -84.6167 180° South 153 176 2,400 -300 Descending Atlanta TRACON
Sun 04:19:33 PM 33.7833 -84.6000 157° South 142 163 1,900 -550 Descending Atlanta TRACON
Sun 04:20:33 PM 33.7833 -84.5500 90° East 130 150 1,300 -600 Descending Atlanta TRACON
Sun 04:22:00 PM 33.7791 -84.5214 135° Southeast  Level Estimated
Sun 04:29:00 PM 33.7791 -84.5214 135° Southeast  Level Estimated

Login

Don't have an account? Register now (free) for customized features, flight alerts, and more!